Strona główna
METAR-TAF:

METAR-TAF

Lotnisko :

Wilkes-Barre / Scranton, Pensylwania, Stany Zjednoczone

Szerokość geograficzna: 41-20-20N, Długość geograficzna: 075-43-36W, wysokość: 293 m

Aktualna obserwacja pogody

Raport powstał 10 minut temu, godzina 08:54 UTC
Wiatr 3 kt od wschodnio-północny wschód
Temperatura 17°C
Wilgotność 94%
Ciśnienie 1020 hPa
Widzialność: 16.1 km
Mało chmury na wysokości 7500 ft

METAR: KAVP 200854Z 07003KT 10SM FEW075 17/16 A3013 RMK AO2 SLP196 T01670156 53006

czas: 05:04 (09:04 UTC)

Prognoza

Raport powstał 3 godziny i 36 minut temu, godzina 05:28 UTC
Prognoza ważna od 20 godzina 06 UTC do 21 godzina 06 UTC
Wiatr 3 kt z kierunków zmiennych
Widzialność: 10 km
Przerywane chmury na wysokości 6000 ft
Od 20 godzina 1500 UTC
Wiatr 8 kt od południowy wschód
Widzialność: 10 km
Rozproszone chmury na wysokości 5000 ft

TAF: KAVP 200528Z 2006/2106 VRB03KT P6SM BKN060 FM201500 13008KT P6SM SCT050

Obserwacja i prognoza pogody dla ponad 4000 lotnisk (raport METAR i TAF).

Dostępne stacje oznaczono żółtymi i czerwonymi punktami na mapie.

Najedź kursorem aby zobaczyć nazwę stacji.

Kliknij aby zobaczyć obserwacje i prognozy pogody.

Aby zmienić mapę: kliknij na zielony przycisk z czarnym krzyżykiem, aby powiększyć; na zielony przycisk z myślnikiem, aby pomniejszyć; na zielone strzałki, aby przejść do map sąsiednich.


METAR-TAF: